sensor_id;sensor_type;location;lat;lon;timestamp;P1;durP1;ratioP1;P2;durP2;ratioP2
68757;SDS011;55747;51.998;4.466;2022-07-29T00:00:17;2.30;;;1.30;;
68757;SDS011;55747;51.998;4.466;2022-07-29T00:02:43;1.88;;;1.30;;
68757;SDS011;55747;51.998;4.466;2022-07-29T00:05:08;2.93;;;1.50;;
68757;SDS011;55747;51.998;4.466;2022-07-29T00:07:34;3.55;;;1.42;;
68757;SDS011;55747;51.998;4.466;2022-07-29T00:10:00;2.70;;;1.40;;
68757;SDS011;55747;51.998;4.466;2022-07-29T00:12:25;2.75;;;1.58;;
68757;SDS011;55747;51.998;4.466;2022-07-29T00:14:51;3.45;;;1.40;;
68757;SDS011;55747;51.998;4.466;2022-07-29T00:17:17;4.15;;;1.70;;
68757;SDS011;55747;51.998;4.466;2022-07-29T00:19:42;4.27;;;1.50;;
68757;SDS011;55747;51.998;4.466;2022-07-29T00:22:08;4.13;;;1.50;;
68757;SDS011;55747;51.998;4.466;2022-07-29T00:24:33;4.55;;;1.60;;
68757;SDS011;55747;51.998;4.466;2022-07-29T00:26:58;6.35;;;1.70;;
68757;SDS011;55747;51.998;4.466;2022-07-29T00:29:24;2.77;;;1.47;;
68757;SDS011;55747;51.998;4.466;2022-07-29T00:31:49;4.47;;;1.63;;
68757;SDS011;55747;51.998;4.466;2022-07-29T00:34:15;3.75;;;1.70;;
68757;SDS011;55747;51.998;4.466;2022-07-29T00:36:59;3.65;;;1.70;;
68757;SDS011;55747;51.998;4.466;2022-07-29T00:39:24;4.43;;;1.60;;
68757;SDS011;55747;51.998;4.466;2022-07-29T00:41:50;4.70;;;1.83;;
68757;SDS011;55747;51.998;4.466;2022-07-29T00:44:15;3.85;;;1.50;;
68757;SDS011;55747;51.998;4.466;2022-07-29T00:46:41;5.90;;;1.60;;
68757;SDS011;55747;51.998;4.466;2022-07-29T00:49:06;2.92;;;1.60;;
68757;SDS011;55747;51.998;4.466;2022-07-29T00:51:32;5.68;;;2.00;;
68757;SDS011;55747;51.998;4.466;2022-07-29T00:54:00;4.78;;;1.65;;
68757;SDS011;55747;51.998;4.466;2022-07-29T00:56:26;2.88;;;1.60;;
68757;SDS011;55747;51.998;4.466;2022-07-29T00:58:51;1.95;;;1.50;;
68757;SDS011;55747;51.998;4.466;2022-07-29T01:01:18;4.20;;;1.83;;
68757;SDS011;55747;51.998;4.466;2022-07-29T01:03:43;2.53;;;1.63;;
68757;SDS011;55747;51.998;4.466;2022-07-29T01:06:09;3.35;;;1.70;;
68757;SDS011;55747;51.998;4.466;2022-07-29T01:08:34;2.95;;;1.77;;
68757;SDS011;55747;51.998;4.466;2022-07-29T01:11:00;3.38;;;1.83;;
68757;SDS011;55747;51.998;4.466;2022-07-29T01:13:26;2.80;;;1.67;;
68757;SDS011;55747;51.998;4.466;2022-07-29T01:15:56;3.42;;;1.50;;
68757;SDS011;55747;51.998;4.466;2022-07-29T01:18:28;2.92;;;1.60;;
68757;SDS011;55747;51.998;4.466;2022-07-29T01:26:34;4.40;;;1.85;;
68757;SDS011;55747;51.998;4.466;2022-07-29T01:31:59;2.85;;;1.70;;
68757;SDS011;55747;51.998;4.466;2022-07-29T01:34:44;8.32;;;2.17;;
68757;SDS011;55747;51.998;4.466;2022-07-29T01:37:18;5.63;;;1.98;;
68757;SDS011;55747;51.998;4.466;2022-07-29T01:39:47;7.38;;;1.73;;
68757;SDS011;55747;51.998;4.466;2022-07-29T01:45:17;4.20;;;1.85;;
68757;SDS011;55747;51.998;4.466;2022-07-29T01:47:47;6.50;;;1.83;;
68757;SDS011;55747;51.998;4.466;2022-07-29T01:50:21;4.90;;;1.90;;
68757;SDS011;55747;51.998;4.466;2022-07-29T01:52:59;4.43;;;1.90;;
68757;SDS011;55747;51.998;4.466;2022-07-29T01:55:29;2.55;;;1.77;;
68757;SDS011;55747;51.998;4.466;2022-07-29T01:57:59;4.95;;;1.60;;
68757;SDS011;55747;51.998;4.466;2022-07-29T02:00:27;3.60;;;1.80;;
68757;SDS011;55747;51.998;4.466;2022-07-29T02:02:56;3.88;;;1.80;;
68757;SDS011;55747;51.998;4.466;2022-07-29T02:05:23;3.55;;;1.80;;
68757;SDS011;55747;51.998;4.466;2022-07-29T02:07:52;4.50;;;1.90;;
68757;SDS011;55747;51.998;4.466;2022-07-29T02:10:21;3.58;;;1.70;;
68757;SDS011;55747;51.998;4.466;2022-07-29T02:12:48;2.80;;;1.80;;
68757;SDS011;55747;51.998;4.466;2022-07-29T02:15:15;4.55;;;1.88;;
68757;SDS011;55747;51.998;4.466;2022-07-29T02:17:44;6.28;;;1.80;;
68757;SDS011;55747;51.998;4.466;2022-07-29T02:20:13;7.55;;;1.90;;
68757;SDS011;55747;51.998;4.466;2022-07-29T02:22:39;3.10;;;1.95;;
68757;SDS011;55747;51.998;4.466;2022-07-29T02:25:06;3.28;;;1.83;;
68757;SDS011;55747;51.998;4.466;2022-07-29T02:27:33;3.85;;;1.90;;
68757;SDS011;55747;51.998;4.466;2022-07-29T02:30:00;4.97;;;1.85;;
68757;SDS011;55747;51.998;4.466;2022-07-29T02:32:29;4.30;;;2.53;;
68757;SDS011;55747;51.998;4.466;2022-07-29T02:34:55;5.53;;;1.70;;
68757;SDS011;55747;51.998;4.466;2022-07-29T02:37:23;3.95;;;2.00;;
68757;SDS011;55747;51.998;4.466;2022-07-29T02:39:51;3.53;;;1.85;;
68757;SDS011;55747;51.998;4.466;2022-07-29T02:42:18;4.53;;;1.77;;
68757;SDS011;55747;51.998;4.466;2022-07-29T02:44:47;4.57;;;1.90;;
68757;SDS011;55747;51.998;4.466;2022-07-29T02:47:17;4.22;;;1.85;;
68757;SDS011;55747;51.998;4.466;2022-07-29T02:49:57;3.67;;;1.92;;
68757;SDS011;55747;51.998;4.466;2022-07-29T02:52:29;4.13;;;2.00;;
68757;SDS011;55747;51.998;4.466;2022-07-29T02:55:01;4.18;;;2.10;;
68757;SDS011;55747;51.998;4.466;2022-07-29T02:57:33;6.80;;;2.00;;
68757;SDS011;55747;51.998;4.466;2022-07-29T03:00:04;3.38;;;2.08;;
68757;SDS011;55747;51.998;4.466;2022-07-29T03:02:42;5.13;;;1.92;;
68757;SDS011;55747;51.998;4.466;2022-07-29T03:05:11;4.05;;;2.05;;
68757;SDS011;55747;51.998;4.466;2022-07-29T03:07:46;5.10;;;2.22;;
68757;SDS011;55747;51.998;4.466;2022-07-29T03:10:16;3.13;;;1.87;;
68757;SDS011;55747;51.998;4.466;2022-07-29T03:12:42;3.85;;;2.10;;
68757;SDS011;55747;51.998;4.466;2022-07-29T03:15:08;4.30;;;1.85;;
68757;SDS011;55747;51.998;4.466;2022-07-29T03:17:34;4.70;;;2.00;;
68757;SDS011;55747;51.998;4.466;2022-07-29T03:20:01;6.60;;;2.20;;
68757;SDS011;55747;51.998;4.466;2022-07-29T03:22:29;5.03;;;2.08;;
68757;SDS011;55747;51.998;4.466;2022-07-29T03:24:55;4.85;;;2.25;;
68757;SDS011;55747;51.998;4.466;2022-07-29T03:27:20;5.00;;;2.10;;
68757;SDS011;55747;51.998;4.466;2022-07-29T03:29:46;4.47;;;2.30;;
68757;SDS011;55747;51.998;4.466;2022-07-29T03:32:11;4.22;;;2.40;;
68757;SDS011;55747;51.998;4.466;2022-07-29T03:34:36;4.90;;;2.23;;
68757;SDS011;55747;51.998;4.466;2022-07-29T03:37:02;4.95;;;2.45;;
68757;SDS011;55747;51.998;4.466;2022-07-29T03:39:29;5.15;;;2.55;;
68757;SDS011;55747;51.998;4.466;2022-07-29T03:41:58;4.70;;;2.53;;
68757;SDS011;55747;51.998;4.466;2022-07-29T03:44:25;4.78;;;2.65;;
68757;SDS011;55747;51.998;4.466;2022-07-29T03:46:53;3.67;;;2.63;;
68757;SDS011;55747;51.998;4.466;2022-07-29T03:49:20;5.50;;;2.70;;
68757;SDS011;55747;51.998;4.466;2022-07-29T03:51:47;6.85;;;2.85;;
68757;SDS011;55747;51.998;4.466;2022-07-29T03:54:12;6.93;;;2.88;;
68757;SDS011;55747;51.998;4.466;2022-07-29T03:56:39;3.53;;;2.65;;
68757;SDS011;55747;51.998;4.466;2022-07-29T03:59:07;5.50;;;2.90;;
68757;SDS011;55747;51.998;4.466;2022-07-29T04:01:34;5.72;;;2.75;;
68757;SDS011;55747;51.998;4.466;2022-07-29T04:04:01;4.30;;;3.20;;
68757;SDS011;55747;51.998;4.466;2022-07-29T04:06:27;4.88;;;2.83;;
68757;SDS011;55747;51.998;4.466;2022-07-29T04:08:52;4.57;;;2.80;;
68757;SDS011;55747;51.998;4.466;2022-07-29T04:11:18;3.92;;;3.03;;
68757;SDS011;55747;51.998;4.466;2022-07-29T04:13:43;3.25;;;2.78;;
68757;SDS011;55747;51.998;4.466;2022-07-29T04:16:09;6.13;;;3.00;;
68757;SDS011;55747;51.998;4.466;2022-07-29T04:18:34;5.00;;;3.00;;
68757;SDS011;55747;51.998;4.466;2022-07-29T04:20:59;3.75;;;2.78;;
68757;SDS011;55747;51.998;4.466;2022-07-29T04:23:26;5.07;;;3.10;;
68757;SDS011;55747;51.998;4.466;2022-07-29T04:25:51;7.65;;;3.05;;
68757;SDS011;55747;51.998;4.466;2022-07-29T04:28:17;5.07;;;3.37;;
68757;SDS011;55747;51.998;4.466;2022-07-29T04:30:42;6.07;;;3.20;;
68757;SDS011;55747;51.998;4.466;2022-07-29T04:33:07;4.20;;;2.90;;
68757;SDS011;55747;51.998;4.466;2022-07-29T04:35:33;5.15;;;3.15;;
68757;SDS011;55747;51.998;4.466;2022-07-29T04:38:00;6.25;;;3.13;;
68757;SDS011;55747;51.998;4.466;2022-07-29T04:40:27;5.82;;;3.33;;
68757;SDS011;55747;51.998;4.466;2022-07-29T04:42:52;5.13;;;2.93;;
68757;SDS011;55747;51.998;4.466;2022-07-29T04:45:18;3.80;;;3.07;;
68757;SDS011;55747;51.998;4.466;2022-07-29T04:47:43;5.15;;;3.08;;
68757;SDS011;55747;51.998;4.466;2022-07-29T04:50:09;5.00;;;3.13;;
68757;SDS011;55747;51.998;4.466;2022-07-29T04:52:35;3.78;;;2.88;;
68757;SDS011;55747;51.998;4.466;2022-07-29T04:55:01;3.63;;;2.60;;
68757;SDS011;55747;51.998;4.466;2022-07-29T04:57:26;3.63;;;2.72;;
68757;SDS011;55747;51.998;4.466;2022-07-29T04:59:52;6.60;;;2.67;;
68757;SDS011;55747;51.998;4.466;2022-07-29T05:02:17;2.90;;;2.55;;
68757;SDS011;55747;51.998;4.466;2022-07-29T05:04:42;5.38;;;2.80;;
68757;SDS011;55747;51.998;4.466;2022-07-29T05:07:08;7.60;;;2.80;;
68757;SDS011;55747;51.998;4.466;2022-07-29T05:09:33;10.30;;;2.80;;
68757;SDS011;55747;51.998;4.466;2022-07-29T05:11:58;4.73;;;2.40;;
68757;SDS011;55747;51.998;4.466;2022-07-29T05:14:23;6.87;;;2.60;;
68757;SDS011;55747;51.998;4.466;2022-07-29T05:16:49;4.70;;;2.50;;
68757;SDS011;55747;51.998;4.466;2022-07-29T05:19:16;3.55;;;2.17;;
68757;SDS011;55747;51.998;4.466;2022-07-29T05:21:42;3.70;;;2.13;;
68757;SDS011;55747;51.998;4.466;2022-07-29T05:24:07;3.10;;;1.90;;
68757;SDS011;55747;51.998;4.466;2022-07-29T05:26:32;3.45;;;2.30;;
68757;SDS011;55747;51.998;4.466;2022-07-29T05:28:58;4.72;;;2.13;;
68757;SDS011;55747;51.998;4.466;2022-07-29T05:31:23;5.97;;;1.90;;
68757;SDS011;55747;51.998;4.466;2022-07-29T05:33:48;4.53;;;1.97;;
68757;SDS011;55747;51.998;4.466;2022-07-29T05:36:14;4.00;;;2.00;;
68757;SDS011;55747;51.998;4.466;2022-07-29T05:38:39;8.13;;;2.07;;
68757;SDS011;55747;51.998;4.466;2022-07-29T05:41:05;2.58;;;1.80;;
68757;SDS011;55747;51.998;4.466;2022-07-29T05:43:30;4.85;;;1.77;;
68757;SDS011;55747;51.998;4.466;2022-07-29T05:45:56;2.97;;;1.70;;
68757;SDS011;55747;51.998;4.466;2022-07-29T05:48:21;5.28;;;1.80;;
68757;SDS011;55747;51.998;4.466;2022-07-29T05:50:46;4.55;;;1.70;;
68757;SDS011;55747;51.998;4.466;2022-07-29T05:53:12;6.57;;;1.80;;
68757;SDS011;55747;51.998;4.466;2022-07-29T05:55:37;3.23;;;1.50;;
68757;SDS011;55747;51.998;4.466;2022-07-29T05:58:02;4.63;;;1.58;;
68757;SDS011;55747;51.998;4.466;2022-07-29T06:00:28;2.37;;;1.70;;
68757;SDS011;55747;51.998;4.466;2022-07-29T06:02:53;4.53;;;1.73;;
68757;SDS011;55747;51.998;4.466;2022-07-29T06:05:18;5.67;;;1.70;;
68757;SDS011;55747;51.998;4.466;2022-07-29T06:07:44;3.95;;;1.70;;
68757;SDS011;55747;51.998;4.466;2022-07-29T06:10:09;4.40;;;1.70;;
68757;SDS011;55747;51.998;4.466;2022-07-29T06:12:35;3.83;;;1.70;;
68757;SDS011;55747;51.998;4.466;2022-07-29T06:15:00;4.35;;;1.70;;
68757;SDS011;55747;51.998;4.466;2022-07-29T06:17:26;5.27;;;2.00;;
68757;SDS011;55747;51.998;4.466;2022-07-29T06:19:51;4.00;;;1.73;;
68757;SDS011;55747;51.998;4.466;2022-07-29T06:22:16;3.57;;;1.80;;
68757;SDS011;55747;51.998;4.466;2022-07-29T06:24:42;4.25;;;1.80;;
68757;SDS011;55747;51.998;4.466;2022-07-29T06:27:08;4.05;;;1.50;;
68757;SDS011;55747;51.998;4.466;2022-07-29T06:29:37;3.83;;;1.70;;
68757;SDS011;55747;51.998;4.466;2022-07-29T06:32:03;4.95;;;1.90;;
68757;SDS011;55747;51.998;4.466;2022-07-29T06:34:28;3.97;;;2.00;;
68757;SDS011;55747;51.998;4.466;2022-07-29T06:36:54;2.90;;;1.80;;
68757;SDS011;55747;51.998;4.466;2022-07-29T06:39:19;4.32;;;1.98;;
68757;SDS011;55747;51.998;4.466;2022-07-29T06:41:48;4.30;;;2.00;;
68757;SDS011;55747;51.998;4.466;2022-07-29T06:44:15;3.35;;;1.92;;
68757;SDS011;55747;51.998;4.466;2022-07-29T06:46:41;3.38;;;1.70;;
68757;SDS011;55747;51.998;4.466;2022-07-29T06:49:07;6.43;;;1.73;;
68757;SDS011;55747;51.998;4.466;2022-07-29T06:51:32;3.25;;;1.63;;
68757;SDS011;55747;51.998;4.466;2022-07-29T06:53:58;5.10;;;1.80;;
68757;SDS011;55747;51.998;4.466;2022-07-29T06:56:23;4.07;;;1.80;;
68757;SDS011;55747;51.998;4.466;2022-07-29T06:58:49;2.97;;;1.60;;
68757;SDS011;55747;51.998;4.466;2022-07-29T07:01:15;5.25;;;1.92;;
68757;SDS011;55747;51.998;4.466;2022-07-29T07:03:40;5.33;;;1.87;;
68757;SDS011;55747;51.998;4.466;2022-07-29T07:06:07;5.90;;;2.00;;
68757;SDS011;55747;51.998;4.466;2022-07-29T07:08:32;4.35;;;1.70;;
68757;SDS011;55747;51.998;4.466;2022-07-29T07:10:58;5.03;;;1.95;;
68757;SDS011;55747;51.998;4.466;2022-07-29T07:13:23;3.55;;;1.65;;
68757;SDS011;55747;51.998;4.466;2022-07-29T07:15:48;4.60;;;1.80;;
68757;SDS011;55747;51.998;4.466;2022-07-29T07:18:15;4.15;;;1.70;;
68757;SDS011;55747;51.998;4.466;2022-07-29T07:20:41;7.18;;;2.00;;
68757;SDS011;55747;51.998;4.466;2022-07-29T07:23:07;6.50;;;2.28;;
68757;SDS011;55747;51.998;4.466;2022-07-29T07:25:32;4.30;;;2.00;;
68757;SDS011;55747;51.998;4.466;2022-07-29T07:27:58;5.78;;;1.92;;
68757;SDS011;55747;51.998;4.466;2022-07-29T07:30:24;3.83;;;1.60;;
68757;SDS011;55747;51.998;4.466;2022-07-29T07:32:49;4.57;;;2.25;;
68757;SDS011;55747;51.998;4.466;2022-07-29T07:35:15;4.60;;;2.20;;
68757;SDS011;55747;51.998;4.466;2022-07-29T07:37:40;3.13;;;1.73;;
68757;SDS011;55747;51.998;4.466;2022-07-29T07:40:06;4.32;;;1.65;;
68757;SDS011;55747;51.998;4.466;2022-07-29T07:42:33;4.15;;;1.80;;
68757;SDS011;55747;51.998;4.466;2022-07-29T07:44:58;5.53;;;2.00;;
68757;SDS011;55747;51.998;4.466;2022-07-29T07:47:24;5.25;;;1.70;;
68757;SDS011;55747;51.998;4.466;2022-07-29T07:49:50;3.85;;;1.85;;
68757;SDS011;55747;51.998;4.466;2022-07-29T07:52:16;2.63;;;1.63;;
68757;SDS011;55747;51.998;4.466;2022-07-29T07:54:42;6.10;;;2.20;;
68757;SDS011;55747;51.998;4.466;2022-07-29T07:57:08;4.07;;;2.10;;
68757;SDS011;55747;51.998;4.466;2022-07-29T07:59:34;4.97;;;1.98;;
68757;SDS011;55747;51.998;4.466;2022-07-29T08:01:59;3.72;;;2.00;;
68757;SDS011;55747;51.998;4.466;2022-07-29T08:04:25;4.10;;;2.10;;
68757;SDS011;55747;51.998;4.466;2022-07-29T08:06:51;5.68;;;1.80;;
68757;SDS011;55747;51.998;4.466;2022-07-29T08:09:19;2.97;;;1.80;;
68757;SDS011;55747;51.998;4.466;2022-07-29T08:11:45;5.50;;;1.73;;
68757;SDS011;55747;51.998;4.466;2022-07-29T08:14:10;5.43;;;1.80;;
68757;SDS011;55747;51.998;4.466;2022-07-29T08:16:35;4.07;;;1.60;;
68757;SDS011;55747;51.998;4.466;2022-07-29T08:19:00;5.70;;;1.73;;
68757;SDS011;55747;51.998;4.466;2022-07-29T08:21:26;5.03;;;1.80;;
68757;SDS011;55747;51.998;4.466;2022-07-29T08:23:51;6.27;;;2.00;;
68757;SDS011;55747;51.998;4.466;2022-07-29T08:26:40;4.13;;;1.95;;
68757;SDS011;55747;51.998;4.466;2022-07-29T08:29:06;3.55;;;1.70;;
68757;SDS011;55747;51.998;4.466;2022-07-29T08:31:31;7.37;;;1.97;;
68757;SDS011;55747;51.998;4.466;2022-07-29T08:33:57;4.27;;;1.77;;
68757;SDS011;55747;51.998;4.466;2022-07-29T08:36:24;3.60;;;1.83;;
68757;SDS011;55747;51.998;4.466;2022-07-29T08:38:50;5.22;;;1.98;;
68757;SDS011;55747;51.998;4.466;2022-07-29T08:41:15;5.70;;;1.88;;
68757;SDS011;55747;51.998;4.466;2022-07-29T08:43:43;4.47;;;2.00;;
68757;SDS011;55747;51.998;4.466;2022-07-29T08:46:09;6.05;;;2.28;;
68757;SDS011;55747;51.998;4.466;2022-07-29T08:48:35;3.25;;;1.73;;
68757;SDS011;55747;51.998;4.466;2022-07-29T08:51:01;3.88;;;1.90;;
68757;SDS011;55747;51.998;4.466;2022-07-29T08:53:26;4.35;;;2.10;;
68757;SDS011;55747;51.998;4.466;2022-07-29T08:55:53;4.53;;;2.00;;
68757;SDS011;55747;51.998;4.466;2022-07-29T08:58:19;5.57;;;2.40;;
68757;SDS011;55747;51.998;4.466;2022-07-29T09:00:50;3.78;;;1.95;;
68757;SDS011;55747;51.998;4.466;2022-07-29T09:03:20;3.05;;;1.90;;
68757;SDS011;55747;51.998;4.466;2022-07-29T09:05:48;4.32;;;2.33;;
68757;SDS011;55747;51.998;4.466;2022-07-29T09:08:15;5.15;;;2.03;;
68757;SDS011;55747;51.998;4.466;2022-07-29T09:10:41;4.30;;;2.30;;
68757;SDS011;55747;51.998;4.466;2022-07-29T09:13:07;4.63;;;2.10;;
68757;SDS011;55747;51.998;4.466;2022-07-29T09:15:32;5.03;;;2.40;;
68757;SDS011;55747;51.998;4.466;2022-07-29T09:17:57;4.30;;;2.40;;
68757;SDS011;55747;51.998;4.466;2022-07-29T09:20:24;5.15;;;2.00;;
68757;SDS011;55747;51.998;4.466;2022-07-29T09:22:51;5.13;;;1.95;;
68757;SDS011;55747;51.998;4.466;2022-07-29T09:25:33;5.85;;;2.20;;
68757;SDS011;55747;51.998;4.466;2022-07-29T09:28:15;10.45;;;2.60;;
68757;SDS011;55747;51.998;4.466;2022-07-29T09:30:57;4.45;;;2.17;;
68757;SDS011;55747;51.998;4.466;2022-07-29T09:33:24;12.55;;;2.00;;
68757;SDS011;55747;51.998;4.466;2022-07-29T09:36:29;6.72;;;2.10;;
68757;SDS011;55747;51.998;4.466;2022-07-29T09:38:56;4.00;;;1.92;;
68757;SDS011;55747;51.998;4.466;2022-07-29T09:41:23;5.40;;;2.25;;
68757;SDS011;55747;51.998;4.466;2022-07-29T09:43:55;6.90;;;2.20;;
68757;SDS011;55747;51.998;4.466;2022-07-29T09:46:21;5.40;;;2.30;;
68757;SDS011;55747;51.998;4.466;2022-07-29T09:49:05;6.15;;;2.30;;
68757;SDS011;55747;51.998;4.466;2022-07-29T09:51:34;5.30;;;2.50;;
68757;SDS011;55747;51.998;4.466;2022-07-29T09:54:00;6.70;;;2.40;;
68757;SDS011;55747;51.998;4.466;2022-07-29T09:56:38;7.53;;;2.60;;
68757;SDS011;55747;51.998;4.466;2022-07-29T09:59:07;7.60;;;2.25;;
68757;SDS011;55747;51.998;4.466;2022-07-29T10:01:33;5.35;;;2.17;;
68757;SDS011;55747;51.998;4.466;2022-07-29T10:04:00;6.03;;;2.25;;
68757;SDS011;55747;51.998;4.466;2022-07-29T10:06:26;4.03;;;2.35;;
68757;SDS011;55747;51.998;4.466;2022-07-29T10:08:51;5.13;;;2.63;;
68757;SDS011;55747;51.998;4.466;2022-07-29T10:11:17;5.20;;;2.80;;
68757;SDS011;55747;51.998;4.466;2022-07-29T10:13:44;4.20;;;2.50;;
68757;SDS011;55747;51.998;4.466;2022-07-29T10:16:11;6.75;;;2.63;;
68757;SDS011;55747;51.998;4.466;2022-07-29T10:18:39;7.15;;;2.90;;
68757;SDS011;55747;51.998;4.466;2022-07-29T10:21:06;4.90;;;2.85;;
68757;SDS011;55747;51.998;4.466;2022-07-29T10:23:32;5.22;;;2.75;;
68757;SDS011;55747;51.998;4.466;2022-07-29T10:25:59;5.88;;;3.08;;
68757;SDS011;55747;51.998;4.466;2022-07-29T10:28:25;6.90;;;2.55;;
68757;SDS011;55747;51.998;4.466;2022-07-29T10:30:51;5.15;;;2.70;;
68757;SDS011;55747;51.998;4.466;2022-07-29T10:33:37;8.57;;;2.65;;
68757;SDS011;55747;51.998;4.466;2022-07-29T10:36:21;5.38;;;2.20;;
68757;SDS011;55747;51.998;4.466;2022-07-29T10:42:11;6.05;;;2.30;;
68757;SDS011;55747;51.998;4.466;2022-07-29T10:44:42;5.22;;;1.77;;
68757;SDS011;55747;51.998;4.466;2022-07-29T10:47:08;5.22;;;2.00;;
68757;SDS011;55747;51.998;4.466;2022-07-29T10:49:55;3.95;;;2.00;;
68757;SDS011;55747;51.998;4.466;2022-07-29T10:52:21;5.30;;;2.20;;
68757;SDS011;55747;51.998;4.466;2022-07-29T10:54:49;6.00;;;2.70;;
68757;SDS011;55747;51.998;4.466;2022-07-29T10:57:19;7.70;;;2.40;;
68757;SDS011;55747;51.998;4.466;2022-07-29T11:07:22;5.27;;;1.80;;
68757;SDS011;55747;51.998;4.466;2022-07-29T11:15:26;9.73;;;2.03;;
68757;SDS011;55747;51.998;4.466;2022-07-29T11:20:31;3.13;;;1.33;;
68757;SDS011;55747;51.998;4.466;2022-07-29T11:23:43;4.95;;;2.05;;
68757;SDS011;55747;51.998;4.466;2022-07-29T11:26:17;3.95;;;1.60;;
68757;SDS011;55747;51.998;4.466;2022-07-29T11:31:19;7.07;;;1.85;;
68757;SDS011;55747;51.998;4.466;2022-07-29T11:34:15;3.67;;;1.77;;
68757;SDS011;55747;51.998;4.466;2022-07-29T11:47:24;3.95;;;1.23;;
68757;SDS011;55747;51.998;4.466;2022-07-29T11:49:52;3.80;;;1.45;;
68757;SDS011;55747;51.998;4.466;2022-07-29T11:52:19;4.45;;;1.48;;
68757;SDS011;55747;51.998;4.466;2022-07-29T11:54:44;6.07;;;1.80;;
68757;SDS011;55747;51.998;4.466;2022-07-29T11:57:13;3.97;;;1.88;;
68757;SDS011;55747;51.998;4.466;2022-07-29T11:59:40;4.03;;;1.90;;
68757;SDS011;55747;51.998;4.466;2022-07-29T12:02:07;4.35;;;1.67;;
68757;SDS011;55747;51.998;4.466;2022-07-29T12:04:33;4.18;;;1.70;;
68757;SDS011;55747;51.998;4.466;2022-07-29T12:06:59;2.78;;;1.70;;
68757;SDS011;55747;51.998;4.466;2022-07-29T12:09:28;6.35;;;1.92;;
68757;SDS011;55747;51.998;4.466;2022-07-29T12:11:56;6.47;;;1.83;;
68757;SDS011;55747;51.998;4.466;2022-07-29T12:14:29;4.32;;;1.80;;
68757;SDS011;55747;51.998;4.466;2022-07-29T12:16:58;5.10;;;2.15;;
68757;SDS011;55747;51.998;4.466;2022-07-29T12:19:25;7.80;;;2.08;;
68757;SDS011;55747;51.998;4.466;2022-07-29T12:21:51;4.70;;;1.70;;
68757;SDS011;55747;51.998;4.466;2022-07-29T12:24:20;5.15;;;1.60;;
68757;SDS011;55747;51.998;4.466;2022-07-29T12:27:04;4.85;;;1.80;;
68757;SDS011;55747;51.998;4.466;2022-07-29T12:29:29;4.45;;;2.00;;
68757;SDS011;55747;51.998;4.466;2022-07-29T12:31:55;3.13;;;1.50;;
68757;SDS011;55747;51.998;4.466;2022-07-29T12:34:23;5.47;;;1.60;;
68757;SDS011;55747;51.998;4.466;2022-07-29T12:36:51;5.13;;;1.48;;
68757;SDS011;55747;51.998;4.466;2022-07-29T12:39:17;3.17;;;1.65;;
68757;SDS011;55747;51.998;4.466;2022-07-29T12:41:44;3.45;;;1.50;;
68757;SDS011;55747;51.998;4.466;2022-07-29T12:44:10;6.10;;;1.70;;
68757;SDS011;55747;51.998;4.466;2022-07-29T12:46:36;4.40;;;1.63;;
68757;SDS011;55747;51.998;4.466;2022-07-29T12:49:02;4.95;;;1.70;;
68757;SDS011;55747;51.998;4.466;2022-07-29T12:51:35;5.78;;;1.60;;
68757;SDS011;55747;51.998;4.466;2022-07-29T12:54:08;4.05;;;1.63;;
68757;SDS011;55747;51.998;4.466;2022-07-29T12:56:35;4.38;;;1.63;;
68757;SDS011;55747;51.998;4.466;2022-07-29T13:01:56;3.75;;;1.65;;
68757;SDS011;55747;51.998;4.466;2022-07-29T13:04:33;5.25;;;1.70;;
68757;SDS011;55747;51.998;4.466;2022-07-29T13:07:05;5.43;;;1.45;;
68757;SDS011;55747;51.998;4.466;2022-07-29T13:14:32;5.05;;;1.83;;
68757;SDS011;55747;51.998;4.466;2022-07-29T13:16:59;3.75;;;1.77;;
68757;SDS011;55747;51.998;4.466;2022-07-29T13:19:52;4.28;;;1.98;;
68757;SDS011;55747;51.998;4.466;2022-07-29T13:22:29;5.18;;;1.70;;
68757;SDS011;55747;51.998;4.466;2022-07-29T13:24:55;7.23;;;1.80;;
68757;SDS011;55747;51.998;4.466;2022-07-29T13:27:24;3.75;;;1.60;;
68757;SDS011;55747;51.998;4.466;2022-07-29T13:29:51;5.45;;;1.58;;
68757;SDS011;55747;51.998;4.466;2022-07-29T13:32:18;3.15;;;1.35;;
68757;SDS011;55747;51.998;4.466;2022-07-29T13:34:44;3.72;;;1.42;;
68757;SDS011;55747;51.998;4.466;2022-07-29T13:37:09;4.23;;;1.40;;
68757;SDS011;55747;51.998;4.466;2022-07-29T13:39:35;3.83;;;1.45;;
68757;SDS011;55747;51.998;4.466;2022-07-29T13:42:02;3.97;;;1.50;;
68757;SDS011;55747;51.998;4.466;2022-07-29T13:44:27;4.70;;;1.73;;
68757;SDS011;55747;51.998;4.466;2022-07-29T13:46:52;3.97;;;1.30;;
68757;SDS011;55747;51.998;4.466;2022-07-29T13:49:18;2.37;;;1.20;;
68757;SDS011;55747;51.998;4.466;2022-07-29T13:51:43;4.20;;;1.50;;
68757;SDS011;55747;51.998;4.466;2022-07-29T13:54:08;3.33;;;1.47;;
68757;SDS011;55747;51.998;4.466;2022-07-29T13:56:34;4.57;;;1.80;;
68757;SDS011;55747;51.998;4.466;2022-07-29T13:58:59;4.10;;;1.57;;
68757;SDS011;55747;51.998;4.466;2022-07-29T14:01:25;4.70;;;1.40;;
68757;SDS011;55747;51.998;4.466;2022-07-29T14:03:51;7.07;;;1.75;;
68757;SDS011;55747;51.998;4.466;2022-07-29T14:06:16;3.53;;;1.55;;
68757;SDS011;55747;51.998;4.466;2022-07-29T14:08:41;5.25;;;1.60;;
68757;SDS011;55747;51.998;4.466;2022-07-29T14:11:07;5.28;;;1.83;;
68757;SDS011;55747;51.998;4.466;2022-07-29T14:13:33;4.00;;;1.50;;
68757;SDS011;55747;51.998;4.466;2022-07-29T14:15:58;5.07;;;1.70;;
68757;SDS011;55747;51.998;4.466;2022-07-29T14:18:23;4.03;;;1.40;;
68757;SDS011;55747;51.998;4.466;2022-07-29T14:20:49;3.70;;;1.50;;
68757;SDS011;55747;51.998;4.466;2022-07-29T14:23:15;5.13;;;1.48;;
68757;SDS011;55747;51.998;4.466;2022-07-29T14:25:41;5.90;;;1.60;;
68757;SDS011;55747;51.998;4.466;2022-07-29T14:28:06;4.87;;;1.70;;
68757;SDS011;55747;51.998;4.466;2022-07-29T14:30:32;6.30;;;1.80;;
68757;SDS011;55747;51.998;4.466;2022-07-29T14:32:57;5.70;;;1.90;;
68757;SDS011;55747;51.998;4.466;2022-07-29T14:35:22;3.80;;;1.73;;
68757;SDS011;55747;51.998;4.466;2022-07-29T14:37:47;6.40;;;1.60;;
68757;SDS011;55747;51.998;4.466;2022-07-29T14:40:13;5.77;;;1.90;;
68757;SDS011;55747;51.998;4.466;2022-07-29T14:42:38;4.10;;;1.80;;
68757;SDS011;55747;51.998;4.466;2022-07-29T14:45:04;5.50;;;1.88;;
68757;SDS011;55747;51.998;4.466;2022-07-29T14:47:31;3.80;;;1.70;;
68757;SDS011;55747;51.998;4.466;2022-07-29T14:49:56;4.70;;;1.60;;
68757;SDS011;55747;51.998;4.466;2022-07-29T14:52:22;3.13;;;1.57;;
68757;SDS011;55747;51.998;4.466;2022-07-29T14:54:47;5.00;;;1.77;;
68757;SDS011;55747;51.998;4.466;2022-07-29T14:57:12;2.63;;;1.60;;
68757;SDS011;55747;51.998;4.466;2022-07-29T14:59:38;4.15;;;1.52;;
68757;SDS011;55747;51.998;4.466;2022-07-29T15:02:03;3.73;;;1.80;;
68757;SDS011;55747;51.998;4.466;2022-07-29T15:04:28;4.22;;;1.60;;
68757;SDS011;55747;51.998;4.466;2022-07-29T15:06:54;3.37;;;1.37;;
68757;SDS011;55747;51.998;4.466;2022-07-29T15:09:19;3.90;;;1.35;;
68757;SDS011;55747;51.998;4.466;2022-07-29T15:11:45;5.17;;;1.40;;
68757;SDS011;55747;51.998;4.466;2022-07-29T15:14:10;4.17;;;1.50;;
68757;SDS011;55747;51.998;4.466;2022-07-29T15:16:36;3.60;;;1.50;;
68757;SDS011;55747;51.998;4.466;2022-07-29T15:19:02;6.47;;;1.83;;
68757;SDS011;55747;51.998;4.466;2022-07-29T15:21:28;6.93;;;1.70;;
68757;SDS011;55747;51.998;4.466;2022-07-29T15:23:53;6.17;;;1.37;;
68757;SDS011;55747;51.998;4.466;2022-07-29T15:26:19;3.95;;;1.40;;
68757;SDS011;55747;51.998;4.466;2022-07-29T15:28:45;2.55;;;1.40;;
68757;SDS011;55747;51.998;4.466;2022-07-29T15:31:10;8.63;;;1.90;;
68757;SDS011;55747;51.998;4.466;2022-07-29T15:33:35;3.90;;;1.20;;
68757;SDS011;55747;51.998;4.466;2022-07-29T15:36:01;2.67;;;1.23;;
68757;SDS011;55747;51.998;4.466;2022-07-29T15:38:26;3.30;;;1.50;;
68757;SDS011;55747;51.998;4.466;2022-07-29T15:40:51;4.13;;;1.40;;